sensor_id;sensor_type;location;lat;lon;timestamp;pressure;altitude;pressure_sealevel;temperature;humidity
26823;BME280;14852;51.910;8.878;2023-03-13T00:01:13;98654.13;;;12.06;59.73
26823;BME280;14852;51.910;8.878;2023-03-13T00:03:39;98646.41;;;12.04;59.49
26823;BME280;14852;51.910;8.878;2023-03-13T00:06:05;98648.06;;;12.05;59.20
26823;BME280;14852;51.910;8.878;2023-03-13T00:08:31;98642.16;;;12.03;59.65
26823;BME280;14852;51.910;8.878;2023-03-13T00:10:57;98635.16;;;12.04;59.52
26823;BME280;14852;51.910;8.878;2023-03-13T00:13:23;98645.34;;;12.07;59.13
26823;BME280;14852;51.910;8.878;2023-03-13T00:15:49;98635.88;;;12.06;59.28
26823;BME280;14852;51.910;8.878;2023-03-13T00:18:14;98628.91;;;12.06;59.17
26823;BME280;14852;51.910;8.878;2023-03-13T00:20:40;98627.34;;;12.04;59.56
26823;BME280;14852;51.910;8.878;2023-03-13T00:23:06;98628.06;;;12.06;59.69
26823;BME280;14852;51.910;8.878;2023-03-13T00:25:32;98619.31;;;12.07;59.36
26823;BME280;14852;51.910;8.878;2023-03-13T00:27:58;98618.38;;;12.08;59.48
26823;BME280;14852;51.910;8.878;2023-03-13T00:30:24;98608.78;;;12.08;59.44
26823;BME280;14852;51.910;8.878;2023-03-13T00:32:49;98606.06;;;12.10;58.89
26823;BME280;14852;51.910;8.878;2023-03-13T00:35:16;98609.75;;;12.07;58.98
26823;BME280;14852;51.910;8.878;2023-03-13T00:37:42;98606.31;;;12.07;59.21
26823;BME280;14852;51.910;8.878;2023-03-13T00:40:09;98599.44;;;12.06;59.13
26823;BME280;14852;51.910;8.878;2023-03-13T00:42:35;98607.34;;;12.04;59.02
26823;BME280;14852;51.910;8.878;2023-03-13T00:45:02;98601.09;;;12.07;59.34
26823;BME280;14852;51.910;8.878;2023-03-13T00:47:28;98595.16;;;12.05;59.32
26823;BME280;14852;51.910;8.878;2023-03-13T00:49:54;98589.03;;;12.06;58.88
26823;BME280;14852;51.910;8.878;2023-03-13T00:52:20;98586.41;;;12.06;59.31
26823;BME280;14852;51.910;8.878;2023-03-13T00:54:46;98590.69;;;12.07;58.84
26823;BME280;14852;51.910;8.878;2023-03-13T00:57:12;98588.09;;;12.07;58.98
26823;BME280;14852;51.910;8.878;2023-03-13T00:59:38;98578.59;;;12.06;59.13
26823;BME280;14852;51.910;8.878;2023-03-13T01:02:04;98572.47;;;12.07;58.67
26823;BME280;14852;51.910;8.878;2023-03-13T01:04:31;98568.09;;;12.07;59.13
26823;BME280;14852;51.910;8.878;2023-03-13T01:06:57;98566.53;;;12.05;58.85
26823;BME280;14852;51.910;8.878;2023-03-13T01:09:23;98565.47;;;12.07;59.09
26823;BME280;14852;51.910;8.878;2023-03-13T01:11:48;98558.38;;;12.09;58.56
26823;BME280;14852;51.910;8.878;2023-03-13T01:14:18;98552.22;;;12.10;58.65
26823;BME280;14852;51.910;8.878;2023-03-13T01:16:45;98554.94;;;12.09;59.06
26823;BME280;14852;51.910;8.878;2023-03-13T01:19:13;98552.09;;;12.12;58.86
26823;BME280;14852;51.910;8.878;2023-03-13T01:21:42;98540.88;;;12.11;58.43
26823;BME280;14852;51.910;8.878;2023-03-13T01:24:08;98545.81;;;12.14;58.57
26823;BME280;14852;51.910;8.878;2023-03-13T01:26:34;98542.25;;;12.15;58.91
26823;BME280;14852;51.910;8.878;2023-03-13T01:29:00;98529.13;;;12.17;58.96
26823;BME280;14852;51.910;8.878;2023-03-13T01:31:31;98528.06;;;12.19;58.75
26823;BME280;14852;51.910;8.878;2023-03-13T01:34:01;98525.34;;;12.21;58.62
26823;BME280;14852;51.910;8.878;2023-03-13T01:36:27;98517.53;;;12.21;58.57
26823;BME280;14852;51.910;8.878;2023-03-13T01:38:56;98515.66;;;12.23;58.68
26823;BME280;14852;51.910;8.878;2023-03-13T01:41:25;98510.44;;;12.23;58.65
26823;BME280;14852;51.910;8.878;2023-03-13T01:43:52;98501.78;;;12.22;58.78
26823;BME280;14852;51.910;8.878;2023-03-13T01:46:23;98489.59;;;12.23;58.58
26823;BME280;14852;51.910;8.878;2023-03-13T01:49:21;98490.88;;;12.28;58.74
26823;BME280;14852;51.910;8.878;2023-03-13T01:52:26;98487.31;;;12.29;58.36
26823;BME280;14852;51.910;8.878;2023-03-13T01:55:08;98476.91;;;12.29;58.61
26823;BME280;14852;51.910;8.878;2023-03-13T01:57:49;98475.25;;;12.28;58.76
26823;BME280;14852;51.910;8.878;2023-03-13T02:00:32;98461.28;;;12.29;58.70
26823;BME280;14852;51.910;8.878;2023-03-13T02:03:06;98450.03;;;12.29;58.86
26823;BME280;14852;51.910;8.878;2023-03-13T02:05:34;98441.41;;;12.28;59.12
26823;BME280;14852;51.910;8.878;2023-03-13T02:08:05;98434.53;;;12.27;59.11
26823;BME280;14852;51.910;8.878;2023-03-13T02:10:41;98433.69;;;12.27;58.75
26823;BME280;14852;51.910;8.878;2023-03-13T02:13:09;98423.53;;;12.24;58.86
26823;BME280;14852;51.910;8.878;2023-03-13T02:15:40;98418.47;;;12.22;58.92
26823;BME280;14852;51.910;8.878;2023-03-13T02:18:07;98407.34;;;12.20;59.08
26823;BME280;14852;51.910;8.878;2023-03-13T02:20:33;98401.41;;;12.18;59.66
26823;BME280;14852;51.910;8.878;2023-03-13T02:23:18;98389.22;;;12.19;59.50
26823;BME280;14852;51.910;8.878;2023-03-13T02:25:53;98374.78;;;12.15;59.64
26823;BME280;14852;51.910;8.878;2023-03-13T02:28:27;98372.44;;;12.12;60.06
26823;BME280;14852;51.910;8.878;2023-03-13T02:30:58;98360.50;;;12.09;59.76
26823;BME280;14852;51.910;8.878;2023-03-13T02:33:29;98355.31;;;12.09;60.39
26823;BME280;14852;51.910;8.878;2023-03-13T02:35:56;98336.38;;;12.07;60.24
26823;BME280;14852;51.910;8.878;2023-03-13T02:38:27;98312.13;;;12.07;60.19
26823;BME280;14852;51.910;8.878;2023-03-13T02:40:55;98318.38;;;12.04;60.55
26823;BME280;14852;51.910;8.878;2023-03-13T02:43:30;98305.50;;;12.03;60.62
26823;BME280;14852;51.910;8.878;2023-03-13T02:46:19;98296.84;;;12.02;60.68
26823;BME280;14852;51.910;8.878;2023-03-13T02:48:51;98297.94;;;12.00;60.53
26823;BME280;14852;51.910;8.878;2023-03-13T02:51:36;98297.81;;;12.01;60.72
26823;BME280;14852;51.910;8.878;2023-03-13T02:54:13;98299.47;;;12.02;61.12
26823;BME280;14852;51.910;8.878;2023-03-13T02:56:44;98302.88;;;12.03;61.26
26823;BME280;14852;51.910;8.878;2023-03-13T02:59:11;98295.06;;;12.03;60.88
26823;BME280;14852;51.910;8.878;2023-03-13T03:01:40;98279.09;;;12.07;61.23
26823;BME280;14852;51.910;8.878;2023-03-13T03:04:06;98265.97;;;12.09;61.07
26823;BME280;14852;51.910;8.878;2023-03-13T03:06:32;98251.72;;;12.13;61.08
26823;BME280;14852;51.910;8.878;2023-03-13T03:09:00;98245.69;;;12.12;61.24
26823;BME280;14852;51.910;8.878;2023-03-13T03:11:28;98244.59;;;12.15;61.27
26823;BME280;14852;51.910;8.878;2023-03-13T03:14:00;98244.59;;;12.15;61.41
26823;BME280;14852;51.910;8.878;2023-03-13T03:16:29;98242.72;;;12.17;61.40
26823;BME280;14852;51.910;8.878;2023-03-13T03:18:54;98240.94;;;12.17;61.62
26823;BME280;14852;51.910;8.878;2023-03-13T03:21:20;98242.84;;;12.15;61.25
26823;BME280;14852;51.910;8.878;2023-03-13T03:23:50;98228.28;;;12.13;62.00
26823;BME280;14852;51.910;8.878;2023-03-13T03:26:16;98236.09;;;12.13;62.14
26823;BME280;14852;51.910;8.878;2023-03-13T03:28:42;98222.25;;;12.12;62.24
26823;BME280;14852;51.910;8.878;2023-03-13T03:31:13;98223.22;;;12.11;62.14
26823;BME280;14852;51.910;8.878;2023-03-13T03:33:41;98225.00;;;12.11;62.08
26823;BME280;14852;51.910;8.878;2023-03-13T03:36:13;98219.78;;;12.11;62.34
26823;BME280;14852;51.910;8.878;2023-03-13T03:38:40;98217.31;;;12.09;62.49
26823;BME280;14852;51.910;8.878;2023-03-13T03:41:10;98212.22;;;12.08;62.84
26823;BME280;14852;51.910;8.878;2023-03-13T03:43:36;98208.94;;;12.06;62.97
26823;BME280;14852;51.910;8.878;2023-03-13T03:46:04;98200.28;;;12.05;63.12
26823;BME280;14852;51.910;8.878;2023-03-13T03:48:30;98207.16;;;12.06;62.81
26823;BME280;14852;51.910;8.878;2023-03-13T03:50:56;98206.19;;;12.07;62.76
26823;BME280;14852;51.910;8.878;2023-03-13T03:53:23;98187.97;;;12.07;62.77
26823;BME280;14852;51.910;8.878;2023-03-13T03:55:49;98193.88;;;12.09;62.93
26823;BME280;14852;51.910;8.878;2023-03-13T03:58:15;98195.38;;;12.12;63.23
26823;BME280;14852;51.910;8.878;2023-03-13T04:00:57;98187.72;;;12.10;63.32
26823;BME280;14852;51.910;8.878;2023-03-13T04:03:23;98186.91;;;12.10;63.25
26823;BME280;14852;51.910;8.878;2023-03-13T04:05:49;98178.81;;;12.13;62.93
26823;BME280;14852;51.910;8.878;2023-03-13T04:08:15;98171.84;;;12.13;63.50
26823;BME280;14852;51.910;8.878;2023-03-13T04:10:41;98160.34;;;12.16;63.78
26823;BME280;14852;51.910;8.878;2023-03-13T04:13:07;98161.03;;;12.18;63.40
26823;BME280;14852;51.910;8.878;2023-03-13T04:15:33;98153.94;;;12.20;63.66
26823;BME280;14852;51.910;8.878;2023-03-13T04:17:59;98141.63;;;12.22;63.71
26823;BME280;14852;51.910;8.878;2023-03-13T04:20:25;98137.06;;;12.24;63.35
26823;BME280;14852;51.910;8.878;2023-03-13T04:22:53;98139.56;;;12.25;63.56
26823;BME280;14852;51.910;8.878;2023-03-13T04:25:20;98132.44;;;12.27;63.93
26823;BME280;14852;51.910;8.878;2023-03-13T04:27:47;98133.13;;;12.29;63.49
26823;BME280;14852;51.910;8.878;2023-03-13T04:30:14;98137.28;;;12.32;63.73
26823;BME280;14852;51.910;8.878;2023-03-13T04:33:15;98126.72;;;12.33;63.63
26823;BME280;14852;51.910;8.878;2023-03-13T04:35:46;98111.09;;;12.33;63.86
26823;BME280;14852;51.910;8.878;2023-03-13T04:38:18;98113.69;;;12.33;63.61
26823;BME280;14852;51.910;8.878;2023-03-13T04:41:04;98120.53;;;12.34;63.90
26823;BME280;14852;51.910;8.878;2023-03-13T04:43:46;98123.84;;;12.37;63.77
26823;BME280;14852;51.910;8.878;2023-03-13T04:46:29;98122.88;;;12.38;63.54
26823;BME280;14852;51.910;8.878;2023-03-13T04:49:14;98122.75;;;12.39;63.72
26823;BME280;14852;51.910;8.878;2023-03-13T04:51:50;98120.84;;;12.41;64.31
26823;BME280;14852;51.910;8.878;2023-03-13T04:54:25;98109.34;;;12.44;64.26
26823;BME280;14852;51.910;8.878;2023-03-13T04:56:57;98107.44;;;12.46;64.12
26823;BME280;14852;51.910;8.878;2023-03-13T04:59:43;98096.59;;;12.50;64.10
26823;BME280;14852;51.910;8.878;2023-03-13T05:02:34;98092.22;;;12.51;64.26
26823;BME280;14852;51.910;8.878;2023-03-13T05:05:06;98090.31;;;12.53;63.84
26823;BME280;14852;51.910;8.878;2023-03-13T05:07:51;98083.31;;;12.53;63.97
26823;BME280;14852;51.910;8.878;2023-03-13T05:10:46;98090.88;;;12.56;64.12
26823;BME280;14852;51.910;8.878;2023-03-13T05:13:31;98085.66;;;12.56;64.63
26823;BME280;14852;51.910;8.878;2023-03-13T05:15:57;98076.91;;;12.57;64.21
26823;BME280;14852;51.910;8.878;2023-03-13T05:18:54;98074.13;;;12.59;64.52
26823;BME280;14852;51.910;8.878;2023-03-13T05:21:38;98077.69;;;12.58;64.92
26823;BME280;14852;51.910;8.878;2023-03-13T05:24:43;98059.31;;;12.59;64.45
26823;BME280;14852;51.910;8.878;2023-03-13T05:27:27;98059.19;;;12.61;64.75
26823;BME280;14852;51.910;8.878;2023-03-13T05:30:07;98058.25;;;12.62;64.91
26823;BME280;14852;51.910;8.878;2023-03-13T05:32:41;98062.25;;;12.66;65.14
26823;BME280;14852;51.910;8.878;2023-03-13T05:35:26;98046.06;;;12.72;65.10
26823;BME280;14852;51.910;8.878;2023-03-13T05:38:18;98056.22;;;12.75;65.10
26823;BME280;14852;51.910;8.878;2023-03-13T05:41:02;98054.03;;;12.80;64.67
26823;BME280;14852;51.910;8.878;2023-03-13T05:43:41;98046.75;;;12.84;64.69
26823;BME280;14852;51.910;8.878;2023-03-13T05:46:25;98038.78;;;12.85;65.18
26823;BME280;14852;51.910;8.878;2023-03-13T05:49:15;98045.53;;;12.88;64.77
26823;BME280;14852;51.910;8.878;2023-03-13T05:51:59;98041.69;;;12.92;65.10
26823;BME280;14852;51.910;8.878;2023-03-13T05:54:40;98044.00;;;12.95;65.22
26823;BME280;14852;51.910;8.878;2023-03-13T05:57:21;98041.13;;;12.98;65.23
26823;BME280;14852;51.910;8.878;2023-03-13T06:00:08;98051.31;;;13.01;64.93
26823;BME280;14852;51.910;8.878;2023-03-13T06:02:45;98043.88;;;13.06;64.96
26823;BME280;14852;51.910;8.878;2023-03-13T06:05:17;98050.47;;;13.10;64.96
26823;BME280;14852;51.910;8.878;2023-03-13T06:07:44;98040.72;;;13.12;65.06
26823;BME280;14852;51.910;8.878;2023-03-13T06:10:10;98044.06;;;13.14;65.34
26823;BME280;14852;51.910;8.878;2023-03-13T06:12:36;98039.25;;;13.19;65.33
26823;BME280;14852;51.910;8.878;2023-03-13T06:15:04;98051.06;;;13.23;65.24
26823;BME280;14852;51.910;8.878;2023-03-13T06:17:49;98048.31;;;13.25;65.14
26823;BME280;14852;51.910;8.878;2023-03-13T06:20:14;98054.88;;;13.29;65.10
26823;BME280;14852;51.910;8.878;2023-03-13T06:22:40;98041.69;;;13.30;65.53
26823;BME280;14852;51.910;8.878;2023-03-13T06:25:07;98061.19;;;13.36;65.33
26823;BME280;14852;51.910;8.878;2023-03-13T06:27:33;98053.06;;;13.39;65.52
26823;BME280;14852;51.910;8.878;2023-03-13T06:30:00;98055.41;;;13.42;65.73
26823;BME280;14852;51.910;8.878;2023-03-13T06:32:27;98049.78;;;13.47;65.64
26823;BME280;14852;51.910;8.878;2023-03-13T06:34:53;98053.91;;;13.49;65.72
26823;BME280;14852;51.910;8.878;2023-03-13T06:37:18;98052.91;;;13.50;65.90
26823;BME280;14852;51.910;8.878;2023-03-13T06:39:44;98051.56;;;13.56;65.28
26823;BME280;14852;51.910;8.878;2023-03-13T06:42:10;98036.59;;;13.58;65.38
26823;BME280;14852;51.910;8.878;2023-03-13T06:44:36;98045.25;;;13.58;65.33
26823;BME280;14852;51.910;8.878;2023-03-13T06:47:01;98038.91;;;13.61;65.65
26823;BME280;14852;51.910;8.878;2023-03-13T06:49:27;98029.13;;;13.63;65.69
26823;BME280;14852;51.910;8.878;2023-03-13T06:51:56;98047.94;;;13.66;66.13
26823;BME280;14852;51.910;8.878;2023-03-13T06:54:23;98043.41;;;13.68;65.88
26823;BME280;14852;51.910;8.878;2023-03-13T06:56:49;98050.16;;;13.71;65.79
26823;BME280;14852;51.910;8.878;2023-03-13T06:59:15;98033.53;;;13.72;65.77
26823;BME280;14852;51.910;8.878;2023-03-13T07:01:40;98033.81;;;13.69;66.18
26823;BME280;14852;51.910;8.878;2023-03-13T07:04:11;98028.44;;;13.70;66.16
26823;BME280;14852;51.910;8.878;2023-03-13T07:06:37;98040.00;;;13.68;65.87
26823;BME280;14852;51.910;8.878;2023-03-13T07:09:03;98043.28;;;13.70;65.85
26823;BME280;14852;51.910;8.878;2023-03-13T07:11:30;98037.25;;;13.69;66.31
26823;BME280;14852;51.910;8.878;2023-03-13T07:13:56;98032.84;;;13.70;66.39
26823;BME280;14852;51.910;8.878;2023-03-13T07:16:22;98043.28;;;13.70;66.63
26823;BME280;14852;51.910;8.878;2023-03-13T07:18:48;98046.59;;;13.72;66.49
26823;BME280;14852;51.910;8.878;2023-03-13T07:21:14;98045.59;;;13.73;66.66
26823;BME280;14852;51.910;8.878;2023-03-13T07:23:40;98034.88;;;13.76;66.37
26823;BME280;14852;51.910;8.878;2023-03-13T07:26:11;98035.28;;;13.81;66.77
26823;BME280;14852;51.910;8.878;2023-03-13T07:28:37;98035.41;;;13.80;66.53
26823;BME280;14852;51.910;8.878;2023-03-13T07:31:15;98036.34;;;13.88;67.01
26823;BME280;14852;51.910;8.878;2023-03-13T07:33:41;98030.03;;;13.91;66.63
26823;BME280;14852;51.910;8.878;2023-03-13T07:36:09;98046.25;;;13.94;66.75
26823;BME280;14852;51.910;8.878;2023-03-13T07:38:35;98046.47;;;14.01;66.85
26823;BME280;14852;51.910;8.878;2023-03-13T07:41:01;98042.75;;;14.03;66.55
26823;BME280;14852;51.910;8.878;2023-03-13T07:43:27;98047.41;;;14.09;66.18
26823;BME280;14852;51.910;8.878;2023-03-13T07:46:02;98034.16;;;14.21;66.31
26823;BME280;14852;51.910;8.878;2023-03-13T07:48:34;98033.88;;;14.24;65.90
26823;BME280;14852;51.910;8.878;2023-03-13T07:51:02;98039.91;;;14.24;66.38
26823;BME280;14852;51.910;8.878;2023-03-13T07:53:28;98021.50;;;14.26;66.22
26823;BME280;14852;51.910;8.878;2023-03-13T07:56:02;98038.22;;;14.33;66.26
26823;BME280;14852;51.910;8.878;2023-03-13T07:58:34;98021.16;;;14.38;65.83
26823;BME280;14852;51.910;8.878;2023-03-13T08:01:07;98028.28;;;14.46;65.79
26823;BME280;14852;51.910;8.878;2023-03-13T08:03:32;98015.97;;;14.56;65.32
26823;BME280;14852;51.910;8.878;2023-03-13T08:06:07;98009.84;;;14.65;65.76
26823;BME280;14852;51.910;8.878;2023-03-13T08:08:34;98015.75;;;14.67;65.35
26823;BME280;14852;51.910;8.878;2023-03-13T08:11:15;98006.38;;;14.74;64.97
26823;BME280;14852;51.910;8.878;2023-03-13T08:13:42;98010.75;;;14.74;65.44
26823;BME280;14852;51.910;8.878;2023-03-13T08:16:16;98005.69;;;14.72;65.51
26823;BME280;14852;51.910;8.878;2023-03-13T08:18:45;97997.16;;;14.70;65.92
26823;BME280;14852;51.910;8.878;2023-03-13T08:21:21;97992.16;;;14.77;65.51
26823;BME280;14852;51.910;8.878;2023-03-13T08:23:47;97994.47;;;14.80;65.27
26823;BME280;14852;51.910;8.878;2023-03-13T08:26:16;97994.91;;;14.93;65.33
26823;BME280;14852;51.910;8.878;2023-03-13T08:28:45;97983.94;;;15.07;65.33
26823;BME280;14852;51.910;8.878;2023-03-13T08:31:16;97966.03;;;15.20;64.83
26823;BME280;14852;51.910;8.878;2023-03-13T08:33:43;97980.16;;;15.28;64.97
26823;BME280;14852;51.910;8.878;2023-03-13T08:38:42;97969.72;;;15.36;64.46
26823;BME280;14852;51.910;8.878;2023-03-13T08:41:10;97950.97;;;15.40;64.45
26823;BME280;14852;51.910;8.878;2023-03-13T08:43:36;97957.38;;;15.46;64.27
26823;BME280;14852;51.910;8.878;2023-03-13T08:46:02;97957.56;;;15.52;64.17
26823;BME280;14852;51.910;8.878;2023-03-13T08:48:28;97963.22;;;15.57;64.46
26823;BME280;14852;51.910;8.878;2023-03-13T08:51:11;97962.44;;;15.65;64.39
26823;BME280;14852;51.910;8.878;2023-03-13T08:53:42;97953.06;;;15.63;63.66
26823;BME280;14852;51.910;8.878;2023-03-13T08:56:14;97951.47;;;15.70;63.89
26823;BME280;14852;51.910;8.878;2023-03-13T08:58:41;97957.22;;;15.73;63.81
26823;BME280;14852;51.910;8.878;2023-03-13T09:01:13;97960.34;;;15.77;63.64
26823;BME280;14852;51.910;8.878;2023-03-13T09:03:40;97951.81;;;15.75;63.87
26823;BME280;14852;51.910;8.878;2023-03-13T09:06:07;97950.84;;;15.76;63.51
26823;BME280;14852;51.910;8.878;2023-03-13T09:08:34;97951.03;;;15.82;63.94
26823;BME280;14852;51.910;8.878;2023-03-13T09:11:04;97953.88;;;15.89;63.35
26823;BME280;14852;51.910;8.878;2023-03-13T09:13:33;97942.75;;;15.95;63.28
26823;BME280;14852;51.910;8.878;2023-03-13T09:16:19;97943.63;;;16.04;63.06
26823;BME280;14852;51.910;8.878;2023-03-13T09:18:46;97931.34;;;16.12;62.95
26823;BME280;14852;51.910;8.878;2023-03-13T09:21:16;97941.84;;;16.12;62.74
26823;BME280;14852;51.910;8.878;2023-03-13T09:23:42;97939.69;;;16.08;63.04
26823;BME280;14852;51.910;8.878;2023-03-13T09:26:08;97935.41;;;16.07;62.67
26823;BME280;14852;51.910;8.878;2023-03-13T09:28:35;97941.47;;;16.07;62.58
26823;BME280;14852;51.910;8.878;2023-03-13T09:31:11;97942.44;;;16.06;62.75
26823;BME280;14852;51.910;8.878;2023-03-13T09:33:37;97928.88;;;16.11;63.17
26823;BME280;14852;51.910;8.878;2023-03-13T09:36:04;97941.34;;;16.17;62.35
26823;BME280;14852;51.910;8.878;2023-03-13T09:38:30;97935.94;;;16.18;62.46
26823;BME280;14852;51.910;8.878;2023-03-13T09:41:19;97933.84;;;16.22;62.24
26823;BME280;14852;51.910;8.878;2023-03-13T09:44:32;97934.81;;;16.21;62.53
26823;BME280;14852;51.910;8.878;2023-03-13T09:47:04;97932.69;;;16.24;62.47
26823;BME280;14852;51.910;8.878;2023-03-13T09:49:38;97939.22;;;16.20;62.30
26823;BME280;14852;51.910;8.878;2023-03-13T09:52:26;97946.25;;;16.20;62.55
26823;BME280;14852;51.910;8.878;2023-03-13T09:55:20;97946.72;;;16.15;62.55
26823;BME280;14852;51.910;8.878;2023-03-13T09:58:18;97930.03;;;16.08;62.52
26823;BME280;14852;51.910;8.878;2023-03-13T10:00:59;97941.97;;;16.03;62.50
26823;BME280;14852;51.910;8.878;2023-03-13T10:03:30;97961.22;;;15.93;62.75
26823;BME280;14852;51.910;8.878;2023-03-13T10:06:04;97954.03;;;15.87;63.30
26823;BME280;14852;51.910;8.878;2023-03-13T10:08:35;97943.53;;;15.87;63.56
26823;BME280;14852;51.910;8.878;2023-03-13T10:14:15;97945.19;;;15.97;62.88
26823;BME280;14852;51.910;8.878;2023-03-13T10:16:53;97942.94;;;16.02;63.11
26823;BME280;14852;51.910;8.878;2023-03-13T10:19:34;97940.88;;;16.21;62.92
26823;BME280;14852;51.910;8.878;2023-03-13T10:22:15;97930.44;;;16.46;62.11
26823;BME280;14852;51.910;8.878;2023-03-13T10:24:59;97910.34;;;16.79;61.57
26823;BME280;14852;51.910;8.878;2023-03-13T10:27:27;97917.53;;;17.01;61.03
26823;BME280;14852;51.910;8.878;2023-03-13T10:29:53;97914.75;;;17.19;60.34
26823;BME280;14852;51.910;8.878;2023-03-13T10:32:19;97897.97;;;17.28;60.47
26823;BME280;14852;51.910;8.878;2023-03-13T10:37:27;97878.91;;;17.42;60.25
26823;BME280;14852;51.910;8.878;2023-03-13T10:39:53;97912.03;;;17.51;60.32
26823;BME280;14852;51.910;8.878;2023-03-13T10:42:41;97915.31;;;17.45;60.21
26823;BME280;14852;51.910;8.878;2023-03-13T10:45:18;97895.28;;;17.52;60.35
26823;BME280;14852;51.910;8.878;2023-03-13T10:47:44;97895.09;;;17.54;60.02
26823;BME280;14852;51.910;8.878;2023-03-13T10:50:20;97900.19;;;17.55;59.94
26823;BME280;14852;51.910;8.878;2023-03-13T10:52:48;97882.34;;;17.51;59.94
26823;BME280;14852;51.910;8.878;2023-03-13T10:55:23;97895.28;;;17.52;60.19
26823;BME280;14852;51.910;8.878;2023-03-13T10:58:03;97894.66;;;17.42;60.14
26823;BME280;14852;51.910;8.878;2023-03-13T11:00:38;97895.28;;;17.44;60.22
26823;BME280;14852;51.910;8.878;2023-03-13T11:03:17;97901.53;;;17.51;59.69
26823;BME280;14852;51.910;8.878;2023-03-13T11:05:59;97897.72;;;17.54;59.98
26823;BME280;14852;51.910;8.878;2023-03-13T11:08:33;97878.34;;;17.55;59.54
26823;BME280;14852;51.910;8.878;2023-03-13T11:11:05;97903.31;;;17.59;59.47
26823;BME280;14852;51.910;8.878;2023-03-13T11:13:42;97895.91;;;17.54;59.66
26823;BME280;14852;51.910;8.878;2023-03-13T11:16:27;97895.75;;;17.56;59.88
26823;BME280;14852;51.910;8.878;2023-03-13T11:33:37;97861.72;;;17.79;58.86
26823;BME280;14852;51.910;8.878;2023-03-13T11:42:10;97861.31;;;17.90;59.26
26823;BME280;14852;51.910;8.878;2023-03-13T11:50:59;97847.28;;;18.05;58.29
26823;BME280;14852;51.910;8.878;2023-03-13T11:54:03;97848.88;;;18.15;58.46
26823;BME280;14852;51.910;8.878;2023-03-13T11:56:55;97852.22;;;18.31;58.11
26823;BME280;14852;51.910;8.878;2023-03-13T11:59:40;97820.66;;;18.31;57.81
26823;BME280;14852;51.910;8.878;2023-03-13T12:02:35;97831.09;;;18.39;57.75
26823;BME280;14852;51.910;8.878;2023-03-13T12:05:08;97831.81;;;18.56;57.45
26823;BME280;14852;51.910;8.878;2023-03-13T12:07:45;97829.19;;;18.56;57.04
26823;BME280;14852;51.910;8.878;2023-03-13T12:10:32;97822.75;;;18.59;56.58
26823;BME280;14852;51.910;8.878;2023-03-13T12:13:06;97817.97;;;18.62;56.91
26823;BME280;14852;51.910;8.878;2023-03-13T12:15:47;97827.19;;;18.58;57.06
26823;BME280;14852;51.910;8.878;2023-03-13T12:18:40;97839.56;;;18.50;56.73
26823;BME280;14852;51.910;8.878;2023-03-13T12:21:34;97812.75;;;18.54;56.84
26823;BME280;14852;51.910;8.878;2023-03-13T12:27:17;97798.56;;;18.63;56.35
26823;BME280;14852;51.910;8.878;2023-03-13T12:32:26;97796.94;;;18.77;55.24
26823;BME280;14852;51.910;8.878;2023-03-13T12:35:24;97772.19;;;18.86;55.21
26823;BME280;14852;51.910;8.878;2023-03-13T12:41:07;97780.59;;;18.81;54.82
26823;BME280;14852;51.910;8.878;2023-03-13T12:43:38;97778.88;;;18.74;53.73
26823;BME280;14852;51.910;8.878;2023-03-13T12:52:40;97760.84;;;18.86;54.02
26823;BME280;14852;51.910;8.878;2023-03-13T12:55:36;97753.13;;;18.99;54.08
26823;BME280;14852;51.910;8.878;2023-03-13T13:01:01;97749.56;;;19.06;53.30
26823;BME280;14852;51.910;8.878;2023-03-13T13:03:38;97736.53;;;19.13;53.10
26823;BME280;14852;51.910;8.878;2023-03-13T13:06:14;97756.28;;;19.24;53.31
26823;BME280;14852;51.910;8.878;2023-03-13T13:11:47;97726.97;;;19.27;52.78
26823;BME280;14852;51.910;8.878;2023-03-13T13:25:34;97718.19;;;19.41;52.89
26823;BME280;14852;51.910;8.878;2023-03-13T13:30:47;97702.22;;;19.42;52.52
26823;BME280;14852;51.910;8.878;2023-03-13T13:38:35;97712.22;;;19.47;52.55
26823;BME280;14852;51.910;8.878;2023-03-13T13:41:25;97698.03;;;19.48;52.51
26823;BME280;14852;51.910;8.878;2023-03-13T13:44:28;97696.84;;;19.50;53.03
26823;BME280;14852;51.910;8.878;2023-03-13T13:46:56;97689.31;;;19.47;52.69
26823;BME280;14852;51.910;8.878;2023-03-13T13:49:34;97679.78;;;19.46;52.47
26823;BME280;14852;51.910;8.878;2023-03-13T13:57:20;97672.78;;;19.39;52.38
26823;BME280;14852;51.910;8.878;2023-03-13T14:02:52;97667.16;;;19.42;52.31
26823;BME280;14852;51.910;8.878;2023-03-13T14:05:25;97650.63;;;19.48;51.84
26823;BME280;14852;51.910;8.878;2023-03-13T14:08:07;97653.34;;;19.55;51.99
26823;BME280;14852;51.910;8.878;2023-03-13T14:13:40;97650.47;;;19.49;51.52
26823;BME280;14852;51.910;8.878;2023-03-13T14:16:23;97654.94;;;19.49;51.41
26823;BME280;14852;51.910;8.878;2023-03-13T14:18:49;97650.47;;;19.49;51.17
26823;BME280;14852;51.910;8.878;2023-03-13T14:21:24;97668.97;;;19.56;51.54
26823;BME280;14852;51.910;8.878;2023-03-13T14:23:50;97668.09;;;19.49;51.40
26823;BME280;14852;51.910;8.878;2023-03-13T14:26:17;97659.09;;;19.43;51.33
26823;BME280;14852;51.910;8.878;2023-03-13T14:28:50;97674.88;;;19.43;51.52
26823;BME280;14852;51.910;8.878;2023-03-13T14:31:31;97666.28;;;19.49;51.70
26823;BME280;14852;51.910;8.878;2023-03-13T14:34:03;97656.25;;;19.45;51.14
26823;BME280;14852;51.910;8.878;2023-03-13T14:36:47;97650.72;;;19.40;51.84
26823;BME280;14852;51.910;8.878;2023-03-13T14:39:42;97635.50;;;19.35;52.02
26823;BME280;14852;51.910;8.878;2023-03-13T14:42:16;97642.94;;;19.32;51.70
26823;BME280;14852;51.910;8.878;2023-03-13T14:44:44;97642.78;;;19.33;51.69
26823;BME280;14852;51.910;8.878;2023-03-13T14:47:26;97645.84;;;19.37;51.06
26823;BME280;14852;51.910;8.878;2023-03-13T14:50:00;97620.53;;;19.36;50.53
26823;BME280;14852;51.910;8.878;2023-03-13T14:52:30;97636.97;;;19.38;51.08
26823;BME280;14852;51.910;8.878;2023-03-13T14:55:03;97630.47;;;19.40;51.30
26823;BME280;14852;51.910;8.878;2023-03-13T14:57:30;97632.94;;;19.42;51.24